sensor_id;sensor_type;location;lat;lon;timestamp;temperature;humidity
52113;DHT22;38109;49.488;31.988;2023-05-16T00:01:05;17.40;52.40
52113;DHT22;38109;49.488;31.988;2023-05-16T00:03:32;17.50;52.50
52113;DHT22;38109;49.488;31.988;2023-05-16T00:05:58;17.50;52.70
52113;DHT22;38109;49.488;31.988;2023-05-16T00:08:27;17.40;52.80
52113;DHT22;38109;49.488;31.988;2023-05-16T00:10:53;17.40;52.90
52113;DHT22;38109;49.488;31.988;2023-05-16T00:13:19;17.40;53.10
52113;DHT22;38109;49.488;31.988;2023-05-16T00:15:51;17.30;53.10
52113;DHT22;38109;49.488;31.988;2023-05-16T00:18:17;17.30;53.20
52113;DHT22;38109;49.488;31.988;2023-05-16T00:20:44;17.30;53.30
52113;DHT22;38109;49.488;31.988;2023-05-16T00:23:10;17.20;53.30
52113;DHT22;38109;49.488;31.988;2023-05-16T00:25:37;17.20;53.40
52113;DHT22;38109;49.488;31.988;2023-05-16T00:28:03;17.20;53.20
52113;DHT22;38109;49.488;31.988;2023-05-16T00:30:28;17.20;53.30
52113;DHT22;38109;49.488;31.988;2023-05-16T00:32:54;17.20;53.50
52113;DHT22;38109;49.488;31.988;2023-05-16T00:35:20;17.10;53.90
52113;DHT22;38109;49.488;31.988;2023-05-16T00:37:46;17.10;54.20
52113;DHT22;38109;49.488;31.988;2023-05-16T00:40:12;17.00;54.70
52113;DHT22;38109;49.488;31.988;2023-05-16T00:42:38;17.00;54.90
52113;DHT22;38109;49.488;31.988;2023-05-16T00:45:04;17.00;55.10
52113;DHT22;38109;49.488;31.988;2023-05-16T00:47:31;16.90;55.20
52113;DHT22;38109;49.488;31.988;2023-05-16T00:49:56;16.90;55.50
52113;DHT22;38109;49.488;31.988;2023-05-16T00:52:23;16.90;55.70
52113;DHT22;38109;49.488;31.988;2023-05-16T00:54:50;16.90;55.70
52113;DHT22;38109;49.488;31.988;2023-05-16T00:57:16;16.90;55.80
52113;DHT22;38109;49.488;31.988;2023-05-16T00:59:45;16.80;55.70
52113;DHT22;38109;49.488;31.988;2023-05-16T01:02:12;16.80;55.90
52113;DHT22;38109;49.488;31.988;2023-05-16T01:04:38;16.80;56.00
52113;DHT22;38109;49.488;31.988;2023-05-16T01:07:04;16.70;56.10
52113;DHT22;38109;49.488;31.988;2023-05-16T01:09:30;16.60;56.10
52113;DHT22;38109;49.488;31.988;2023-05-16T01:12:37;16.60;56.20
52113;DHT22;38109;49.488;31.988;2023-05-16T01:15:12;16.50;56.30
52113;DHT22;38109;49.488;31.988;2023-05-16T01:20:29;16.40;56.50
52113;DHT22;38109;49.488;31.988;2023-05-16T01:25:56;16.30;56.70
52113;DHT22;38109;49.488;31.988;2023-05-16T01:28:24;16.30;57.00
52113;DHT22;38109;49.488;31.988;2023-05-16T01:30:51;16.20;57.00
52113;DHT22;38109;49.488;31.988;2023-05-16T01:33:16;16.20;57.10
52113;DHT22;38109;49.488;31.988;2023-05-16T01:41:26;16.00;57.30
52113;DHT22;38109;49.488;31.988;2023-05-16T01:43:59;15.90;57.40
52113;DHT22;38109;49.488;31.988;2023-05-16T01:46:30;15.90;58.00
52113;DHT22;38109;49.488;31.988;2023-05-16T01:49:04;15.80;58.20
52113;DHT22;38109;49.488;31.988;2023-05-16T01:51:41;15.80;58.40
52113;DHT22;38109;49.488;31.988;2023-05-16T01:54:11;15.70;58.40
52113;DHT22;38109;49.488;31.988;2023-05-16T01:56:38;15.70;58.50
52113;DHT22;38109;49.488;31.988;2023-05-16T01:59:05;15.60;58.60
52113;DHT22;38109;49.488;31.988;2023-05-16T02:01:32;15.60;58.60
52113;DHT22;38109;49.488;31.988;2023-05-16T02:03:59;15.50;58.80
52113;DHT22;38109;49.488;31.988;2023-05-16T02:06:25;15.50;58.90
52113;DHT22;38109;49.488;31.988;2023-05-16T02:08:50;15.50;59.00
52113;DHT22;38109;49.488;31.988;2023-05-16T02:11:17;15.40;59.10
52113;DHT22;38109;49.488;31.988;2023-05-16T02:13:42;15.30;59.20
52113;DHT22;38109;49.488;31.988;2023-05-16T02:16:10;15.30;59.30
52113;DHT22;38109;49.488;31.988;2023-05-16T02:18:35;15.30;59.50
52113;DHT22;38109;49.488;31.988;2023-05-16T02:21:01;15.20;59.60
52113;DHT22;38109;49.488;31.988;2023-05-16T02:23:27;15.10;59.60
52113;DHT22;38109;49.488;31.988;2023-05-16T02:25:52;15.10;59.70
52113;DHT22;38109;49.488;31.988;2023-05-16T02:28:18;15.00;59.80
52113;DHT22;38109;49.488;31.988;2023-05-16T02:30:44;15.10;59.90
52113;DHT22;38109;49.488;31.988;2023-05-16T02:33:10;15.00;59.90
52113;DHT22;38109;49.488;31.988;2023-05-16T02:35:36;15.00;59.90
52113;DHT22;38109;49.488;31.988;2023-05-16T02:38:01;15.00;60.00
52113;DHT22;38109;49.488;31.988;2023-05-16T02:40:27;15.00;60.10
52113;DHT22;38109;49.488;31.988;2023-05-16T02:42:52;14.90;60.10
52113;DHT22;38109;49.488;31.988;2023-05-16T02:45:18;15.00;60.10
52113;DHT22;38109;49.488;31.988;2023-05-16T02:47:44;15.00;60.10
52113;DHT22;38109;49.488;31.988;2023-05-16T02:50:10;15.00;60.00
52113;DHT22;38109;49.488;31.988;2023-05-16T02:52:35;15.10;59.90
52113;DHT22;38109;49.488;31.988;2023-05-16T02:55:01;15.20;59.60
52113;DHT22;38109;49.488;31.988;2023-05-16T02:57:27;15.20;59.60
52113;DHT22;38109;49.488;31.988;2023-05-16T02:59:52;15.20;59.70
52113;DHT22;38109;49.488;31.988;2023-05-16T03:02:18;15.20;59.80
52113;DHT22;38109;49.488;31.988;2023-05-16T03:04:43;15.20;59.90
52113;DHT22;38109;49.488;31.988;2023-05-16T03:07:09;15.20;60.10
52113;DHT22;38109;49.488;31.988;2023-05-16T03:09:35;15.20;60.30
52113;DHT22;38109;49.488;31.988;2023-05-16T03:12:00;15.20;60.60
52113;DHT22;38109;49.488;31.988;2023-05-16T03:14:26;15.20;60.80
52113;DHT22;38109;49.488;31.988;2023-05-16T03:16:51;15.20;60.90
52113;DHT22;38109;49.488;31.988;2023-05-16T03:19:17;15.10;60.90
52113;DHT22;38109;49.488;31.988;2023-05-16T03:21:43;15.20;61.00
52113;DHT22;38109;49.488;31.988;2023-05-16T03:24:09;15.20;61.10
52113;DHT22;38109;49.488;31.988;2023-05-16T03:26:35;15.20;61.20
52113;DHT22;38109;49.488;31.988;2023-05-16T03:29:01;15.20;61.40
52113;DHT22;38109;49.488;31.988;2023-05-16T03:31:26;15.20;61.40
52113;DHT22;38109;49.488;31.988;2023-05-16T03:33:52;15.20;61.40
52113;DHT22;38109;49.488;31.988;2023-05-16T03:36:20;15.20;61.50
52113;DHT22;38109;49.488;31.988;2023-05-16T03:38:47;15.30;61.90
52113;DHT22;38109;49.488;31.988;2023-05-16T03:41:13;15.30;61.90
52113;DHT22;38109;49.488;31.988;2023-05-16T03:43:38;15.30;62.00
52113;DHT22;38109;49.488;31.988;2023-05-16T03:46:04;15.40;62.20
52113;DHT22;38109;49.488;31.988;2023-05-16T03:48:30;15.40;62.50
52113;DHT22;38109;49.488;31.988;2023-05-16T03:50:55;15.50;62.70
52113;DHT22;38109;49.488;31.988;2023-05-16T03:53:21;15.50;62.80
52113;DHT22;38109;49.488;31.988;2023-05-16T03:55:47;15.50;62.80
52113;DHT22;38109;49.488;31.988;2023-05-16T03:58:12;15.60;62.90
52113;DHT22;38109;49.488;31.988;2023-05-16T04:00:38;15.60;62.90
52113;DHT22;38109;49.488;31.988;2023-05-16T04:03:03;15.70;62.90
52113;DHT22;38109;49.488;31.988;2023-05-16T04:05:29;15.70;62.90
52113;DHT22;38109;49.488;31.988;2023-05-16T04:07:55;15.80;62.90
52113;DHT22;38109;49.488;31.988;2023-05-16T04:10:21;15.90;63.00
52113;DHT22;38109;49.488;31.988;2023-05-16T04:12:47;16.00;63.00
52113;DHT22;38109;49.488;31.988;2023-05-16T04:15:12;16.10;63.00
52113;DHT22;38109;49.488;31.988;2023-05-16T04:17:38;16.20;63.30
52113;DHT22;38109;49.488;31.988;2023-05-16T04:20:05;16.20;63.10
52113;DHT22;38109;49.488;31.988;2023-05-16T04:22:31;16.30;63.10
52113;DHT22;38109;49.488;31.988;2023-05-16T04:24:57;16.40;63.00
52113;DHT22;38109;49.488;31.988;2023-05-16T04:27:23;16.50;63.00
52113;DHT22;38109;49.488;31.988;2023-05-16T04:29:49;16.60;62.40
52113;DHT22;38109;49.488;31.988;2023-05-16T04:32:15;16.70;61.90
52113;DHT22;38109;49.488;31.988;2023-05-16T04:34:41;16.80;61.50
52113;DHT22;38109;49.488;31.988;2023-05-16T04:37:08;16.80;61.10
52113;DHT22;38109;49.488;31.988;2023-05-16T04:39:35;16.90;60.90
52113;DHT22;38109;49.488;31.988;2023-05-16T04:42:01;17.00;60.60
52113;DHT22;38109;49.488;31.988;2023-05-16T04:44:29;17.00;60.40
52113;DHT22;38109;49.488;31.988;2023-05-16T04:46:55;17.10;60.20
52113;DHT22;38109;49.488;31.988;2023-05-16T04:49:21;17.20;60.10
52113;DHT22;38109;49.488;31.988;2023-05-16T04:51:47;17.20;59.80
52113;DHT22;38109;49.488;31.988;2023-05-16T04:54:13;17.30;59.60
52113;DHT22;38109;49.488;31.988;2023-05-16T04:56:39;17.30;59.20
52113;DHT22;38109;49.488;31.988;2023-05-16T04:59:06;17.40;59.00
52113;DHT22;38109;49.488;31.988;2023-05-16T05:01:33;17.40;58.90
52113;DHT22;38109;49.488;31.988;2023-05-16T05:04:00;17.40;58.70
52113;DHT22;38109;49.488;31.988;2023-05-16T05:16:48;17.60;58.10
52113;DHT22;38109;49.488;31.988;2023-05-16T05:19:13;17.60;58.00
52113;DHT22;38109;49.488;31.988;2023-05-16T05:21:39;17.60;57.80
52113;DHT22;38109;49.488;31.988;2023-05-16T05:24:05;17.60;57.70
52113;DHT22;38109;49.488;31.988;2023-05-16T05:26:30;17.70;57.60
52113;DHT22;38109;49.488;31.988;2023-05-16T05:28:56;17.70;57.40
52113;DHT22;38109;49.488;31.988;2023-05-16T05:31:22;17.70;57.20
52113;DHT22;38109;49.488;31.988;2023-05-16T05:33:47;17.80;57.10
52113;DHT22;38109;49.488;31.988;2023-05-16T05:36:13;17.80;57.00
52113;DHT22;38109;49.488;31.988;2023-05-16T05:38:39;17.80;56.80
52113;DHT22;38109;49.488;31.988;2023-05-16T05:41:04;17.80;56.70
52113;DHT22;38109;49.488;31.988;2023-05-16T05:43:31;17.90;56.60
52113;DHT22;38109;49.488;31.988;2023-05-16T05:45:57;17.90;56.50
52113;DHT22;38109;49.488;31.988;2023-05-16T05:48:23;17.90;56.30
52113;DHT22;38109;49.488;31.988;2023-05-16T05:50:48;17.90;56.10
52113;DHT22;38109;49.488;31.988;2023-05-16T05:53:14;18.00;55.90
52113;DHT22;38109;49.488;31.988;2023-05-16T05:55:40;18.00;55.90
52113;DHT22;38109;49.488;31.988;2023-05-16T05:58:06;18.00;55.70
52113;DHT22;38109;49.488;31.988;2023-05-16T06:00:32;18.10;55.60
52113;DHT22;38109;49.488;31.988;2023-05-16T06:02:58;18.10;55.50
52113;DHT22;38109;49.488;31.988;2023-05-16T06:05:23;18.10;55.40
52113;DHT22;38109;49.488;31.988;2023-05-16T06:07:49;18.10;55.30
52113;DHT22;38109;49.488;31.988;2023-05-16T06:10:15;18.20;55.20
52113;DHT22;38109;49.488;31.988;2023-05-16T06:12:40;18.20;55.20
52113;DHT22;38109;49.488;31.988;2023-05-16T06:15:06;18.20;55.20
52113;DHT22;38109;49.488;31.988;2023-05-16T06:17:32;18.20;55.10
52113;DHT22;38109;49.488;31.988;2023-05-16T06:19:58;18.30;55.00
52113;DHT22;38109;49.488;31.988;2023-05-16T06:22:24;18.30;55.50
52113;DHT22;38109;49.488;31.988;2023-05-16T06:24:49;18.30;54.70
52113;DHT22;38109;49.488;31.988;2023-05-16T06:27:15;18.30;54.60
52113;DHT22;38109;49.488;31.988;2023-05-16T06:29:40;18.30;54.60
52113;DHT22;38109;49.488;31.988;2023-05-16T06:32:06;18.40;54.60
52113;DHT22;38109;49.488;31.988;2023-05-16T06:34:32;18.40;54.50
52113;DHT22;38109;49.488;31.988;2023-05-16T06:36:57;18.40;54.40
52113;DHT22;38109;49.488;31.988;2023-05-16T06:39:24;18.50;54.40
52113;DHT22;38109;49.488;31.988;2023-05-16T06:41:50;18.50;54.30
52113;DHT22;38109;49.488;31.988;2023-05-16T06:44:16;18.50;54.20
52113;DHT22;38109;49.488;31.988;2023-05-16T06:46:41;18.60;54.10
52113;DHT22;38109;49.488;31.988;2023-05-16T06:49:07;18.60;54.00
52113;DHT22;38109;49.488;31.988;2023-05-16T06:51:33;18.60;53.80
52113;DHT22;38109;49.488;31.988;2023-05-16T06:53:58;18.70;53.70
52113;DHT22;38109;49.488;31.988;2023-05-16T06:56:24;18.70;53.60
52113;DHT22;38109;49.488;31.988;2023-05-16T06:58:50;18.70;53.50
52113;DHT22;38109;49.488;31.988;2023-05-16T07:01:15;18.80;53.50
52113;DHT22;38109;49.488;31.988;2023-05-16T07:03:41;18.80;53.40
52113;DHT22;38109;49.488;31.988;2023-05-16T07:06:07;18.80;53.20
52113;DHT22;38109;49.488;31.988;2023-05-16T07:08:33;18.90;53.20
52113;DHT22;38109;49.488;31.988;2023-05-16T07:11:00;18.90;53.10
52113;DHT22;38109;49.488;31.988;2023-05-16T07:13:26;18.90;53.10
52113;DHT22;38109;49.488;31.988;2023-05-16T07:15:52;18.90;53.10
52113;DHT22;38109;49.488;31.988;2023-05-16T07:18:18;18.90;53.10
52113;DHT22;38109;49.488;31.988;2023-05-16T07:20:44;18.90;53.10
52113;DHT22;38109;49.488;31.988;2023-05-16T07:23:10;18.90;53.00
52113;DHT22;38109;49.488;31.988;2023-05-16T07:25:36;18.90;53.10
52113;DHT22;38109;49.488;31.988;2023-05-16T07:28:02;18.90;53.10
52113;DHT22;38109;49.488;31.988;2023-05-16T07:30:28;19.00;53.10
52113;DHT22;38109;49.488;31.988;2023-05-16T07:32:54;19.00;53.10
52113;DHT22;38109;49.488;31.988;2023-05-16T07:35:19;19.00;53.00
52113;DHT22;38109;49.488;31.988;2023-05-16T07:37:46;19.00;52.90
52113;DHT22;38109;49.488;31.988;2023-05-16T07:40:12;19.00;52.70
52113;DHT22;38109;49.488;31.988;2023-05-16T07:42:39;19.00;52.60
52113;DHT22;38109;49.488;31.988;2023-05-16T07:45:05;19.00;52.50
52113;DHT22;38109;49.488;31.988;2023-05-16T07:47:32;19.00;52.50
52113;DHT22;38109;49.488;31.988;2023-05-16T07:49:57;19.00;52.50
52113;DHT22;38109;49.488;31.988;2023-05-16T07:52:23;19.10;52.50
52113;DHT22;38109;49.488;31.988;2023-05-16T07:54:48;19.10;52.60
52113;DHT22;38109;49.488;31.988;2023-05-16T07:57:15;19.10;52.70
52113;DHT22;38109;49.488;31.988;2023-05-16T07:59:42;19.10;53.00
52113;DHT22;38109;49.488;31.988;2023-05-16T08:02:09;19.10;53.30
52113;DHT22;38109;49.488;31.988;2023-05-16T08:04:35;19.10;53.60
52113;DHT22;38109;49.488;31.988;2023-05-16T08:07:01;19.10;53.80
52113;DHT22;38109;49.488;31.988;2023-05-16T08:09:27;19.00;53.90
52113;DHT22;38109;49.488;31.988;2023-05-16T08:11:52;19.00;54.20
52113;DHT22;38109;49.488;31.988;2023-05-16T08:14:19;19.00;54.50
52113;DHT22;38109;49.488;31.988;2023-05-16T08:16:44;19.00;54.60
52113;DHT22;38109;49.488;31.988;2023-05-16T08:19:10;18.90;54.70
52113;DHT22;38109;49.488;31.988;2023-05-16T08:21:37;18.90;54.70
52113;DHT22;38109;49.488;31.988;2023-05-16T08:24:02;18.90;54.80
52113;DHT22;38109;49.488;31.988;2023-05-16T08:26:29;18.90;54.90
52113;DHT22;38109;49.488;31.988;2023-05-16T08:28:55;18.80;55.00
52113;DHT22;38109;49.488;31.988;2023-05-16T08:31:21;18.80;55.00
52113;DHT22;38109;49.488;31.988;2023-05-16T08:33:47;18.80;55.10
52113;DHT22;38109;49.488;31.988;2023-05-16T08:36:13;18.80;55.10
52113;DHT22;38109;49.488;31.988;2023-05-16T08:38:40;18.80;55.10
52113;DHT22;38109;49.488;31.988;2023-05-16T08:41:06;18.80;55.20
52113;DHT22;38109;49.488;31.988;2023-05-16T08:43:32;18.80;55.20
52113;DHT22;38109;49.488;31.988;2023-05-16T08:46:00;18.80;55.20
52113;DHT22;38109;49.488;31.988;2023-05-16T08:48:27;18.80;55.30
52113;DHT22;38109;49.488;31.988;2023-05-16T08:50:55;18.80;55.30
52113;DHT22;38109;49.488;31.988;2023-05-16T08:53:25;18.80;55.50
52113;DHT22;38109;49.488;31.988;2023-05-16T08:55:52;18.80;55.60
52113;DHT22;38109;49.488;31.988;2023-05-16T08:58:18;18.80;55.60
52113;DHT22;38109;49.488;31.988;2023-05-16T09:00:45;18.90;55.70
52113;DHT22;38109;49.488;31.988;2023-05-16T09:03:11;18.90;55.70
52113;DHT22;38109;49.488;31.988;2023-05-16T09:05:37;18.90;55.70
52113;DHT22;38109;49.488;31.988;2023-05-16T09:08:03;19.00;55.60
52113;DHT22;38109;49.488;31.988;2023-05-16T09:10:28;19.00;55.50
52113;DHT22;38109;49.488;31.988;2023-05-16T09:12:54;19.00;55.40
52113;DHT22;38109;49.488;31.988;2023-05-16T09:15:20;19.10;55.50
52113;DHT22;38109;49.488;31.988;2023-05-16T09:17:48;19.10;55.40
52113;DHT22;38109;49.488;31.988;2023-05-16T09:20:16;19.10;55.40
52113;DHT22;38109;49.488;31.988;2023-05-16T09:22:50;19.20;55.30
52113;DHT22;38109;49.488;31.988;2023-05-16T09:25:17;19.20;55.20
52113;DHT22;38109;49.488;31.988;2023-05-16T09:27:42;19.20;55.00
52113;DHT22;38109;49.488;31.988;2023-05-16T09:30:17;19.30;55.00
52113;DHT22;38109;49.488;31.988;2023-05-16T09:32:45;19.30;54.80
52113;DHT22;38109;49.488;31.988;2023-05-16T09:35:14;19.30;54.80
52113;DHT22;38109;49.488;31.988;2023-05-16T09:37:45;19.30;54.60
52113;DHT22;38109;49.488;31.988;2023-05-16T09:40:12;19.30;54.50
52113;DHT22;38109;49.488;31.988;2023-05-16T09:42:37;19.30;54.50
52113;DHT22;38109;49.488;31.988;2023-05-16T09:45:04;19.30;54.40
52113;DHT22;38109;49.488;31.988;2023-05-16T09:47:29;19.40;54.30
52113;DHT22;38109;49.488;31.988;2023-05-16T09:49:55;19.40;54.30
52113;DHT22;38109;49.488;31.988;2023-05-16T09:52:21;19.40;54.20
52113;DHT22;38109;49.488;31.988;2023-05-16T09:54:47;19.40;54.10
52113;DHT22;38109;49.488;31.988;2023-05-16T09:57:23;19.40;54.00
52113;DHT22;38109;49.488;31.988;2023-05-16T09:59:51;19.40;53.80
52113;DHT22;38109;49.488;31.988;2023-05-16T10:02:17;19.40;53.70
52113;DHT22;38109;49.488;31.988;2023-05-16T10:04:43;19.50;53.70
52113;DHT22;38109;49.488;31.988;2023-05-16T10:07:09;19.50;53.60
52113;DHT22;38109;49.488;31.988;2023-05-16T10:09:35;19.50;53.50
52113;DHT22;38109;49.488;31.988;2023-05-16T10:12:03;19.50;53.60
52113;DHT22;38109;49.488;31.988;2023-05-16T10:14:35;19.50;54.10
52113;DHT22;38109;49.488;31.988;2023-05-16T10:17:02;19.60;53.60
52113;DHT22;38109;49.488;31.988;2023-05-16T10:19:31;19.60;53.50
52113;DHT22;38109;49.488;31.988;2023-05-16T10:21:58;19.60;53.50
52113;DHT22;38109;49.488;31.988;2023-05-16T10:24:43;19.70;53.50
52113;DHT22;38109;49.488;31.988;2023-05-16T10:27:13;19.70;53.30
52113;DHT22;38109;49.488;31.988;2023-05-16T10:29:39;19.70;53.30
52113;DHT22;38109;49.488;31.988;2023-05-16T10:32:07;19.70;53.30
52113;DHT22;38109;49.488;31.988;2023-05-16T10:34:33;19.70;53.20
52113;DHT22;38109;49.488;31.988;2023-05-16T10:36:59;19.70;53.20
52113;DHT22;38109;49.488;31.988;2023-05-16T10:39:26;19.70;53.10
52113;DHT22;38109;49.488;31.988;2023-05-16T10:41:53;19.80;53.20
52113;DHT22;38109;49.488;31.988;2023-05-16T10:44:19;19.80;53.10
52113;DHT22;38109;49.488;31.988;2023-05-16T10:46:46;19.80;53.00
52113;DHT22;38109;49.488;31.988;2023-05-16T10:49:20;19.90;53.10
52113;DHT22;38109;49.488;31.988;2023-05-16T10:52:01;19.90;53.10
52113;DHT22;38109;49.488;31.988;2023-05-16T10:54:38;19.90;53.10
52113;DHT22;38109;49.488;31.988;2023-05-16T10:57:14;19.90;53.10
52113;DHT22;38109;49.488;31.988;2023-05-16T10:59:46;19.90;53.00
52113;DHT22;38109;49.488;31.988;2023-05-16T11:04:54;19.90;52.80
52113;DHT22;38109;49.488;31.988;2023-05-16T11:07:21;19.90;52.70
52113;DHT22;38109;49.488;31.988;2023-05-16T11:10:07;20.00;52.60
52113;DHT22;38109;49.488;31.988;2023-05-16T11:12:41;20.00;52.50
52113;DHT22;38109;49.488;31.988;2023-05-16T11:17:45;20.00;52.30
52113;DHT22;38109;49.488;31.988;2023-05-16T11:21:01;20.00;52.20
52113;DHT22;38109;49.488;31.988;2023-05-16T11:23:25;20.00;52.00
52113;DHT22;38109;49.488;31.988;2023-05-16T11:25:53;20.00;52.00
52113;DHT22;38109;49.488;31.988;2023-05-16T11:28:20;20.00;51.90
52113;DHT22;38109;49.488;31.988;2023-05-16T11:30:52;20.00;51.70
52113;DHT22;38109;49.488;31.988;2023-05-16T11:33:20;20.10;51.60
52113;DHT22;38109;49.488;31.988;2023-05-16T11:36:03;20.10;51.50
52113;DHT22;38109;49.488;31.988;2023-05-16T11:38:30;20.10;51.40
52113;DHT22;38109;49.488;31.988;2023-05-16T11:41:06;20.10;51.30
52113;DHT22;38109;49.488;31.988;2023-05-16T11:43:40;20.20;51.30
52113;DHT22;38109;49.488;31.988;2023-05-16T11:46:09;20.20;51.50
52113;DHT22;38109;49.488;31.988;2023-05-16T11:48:35;20.20;51.80
52113;DHT22;38109;49.488;31.988;2023-05-16T11:51:01;20.30;52.00
52113;DHT22;38109;49.488;31.988;2023-05-16T11:53:27;20.30;52.10
52113;DHT22;38109;49.488;31.988;2023-05-16T11:55:53;20.30;52.30
52113;DHT22;38109;49.488;31.988;2023-05-16T11:58:19;20.30;52.40
52113;DHT22;38109;49.488;31.988;2023-05-16T12:00:49;20.30;52.40
52113;DHT22;38109;49.488;31.988;2023-05-16T12:03:17;20.30;52.70
52113;DHT22;38109;49.488;31.988;2023-05-16T12:05:54;20.30;53.00
52113;DHT22;38109;49.488;31.988;2023-05-16T12:08:21;20.40;53.10
52113;DHT22;38109;49.488;31.988;2023-05-16T12:10:50;20.40;53.10
52113;DHT22;38109;49.488;31.988;2023-05-16T12:13:18;20.40;53.10
52113;DHT22;38109;49.488;31.988;2023-05-16T12:15:45;20.40;53.20
52113;DHT22;38109;49.488;31.988;2023-05-16T12:18:11;20.40;53.30
52113;DHT22;38109;49.488;31.988;2023-05-16T12:20:37;20.50;53.40
52113;DHT22;38109;49.488;31.988;2023-05-16T12:23:10;20.50;53.30
52113;DHT22;38109;49.488;31.988;2023-05-16T12:25:36;20.50;53.80
52113;DHT22;38109;49.488;31.988;2023-05-16T12:28:06;20.60;52.90
52113;DHT22;38109;49.488;31.988;2023-05-16T12:30:33;20.60;52.80
52113;DHT22;38109;49.488;31.988;2023-05-16T12:33:03;20.60;52.60
52113;DHT22;38109;49.488;31.988;2023-05-16T12:35:33;20.70;52.40
52113;DHT22;38109;49.488;31.988;2023-05-16T12:38:10;20.70;52.20
52113;DHT22;38109;49.488;31.988;2023-05-16T12:40:37;20.70;52.10
52113;DHT22;38109;49.488;31.988;2023-05-16T12:43:04;20.80;52.00
52113;DHT22;38109;49.488;31.988;2023-05-16T12:45:37;20.80;51.80
52113;DHT22;38109;49.488;31.988;2023-05-16T12:48:11;20.80;51.60
52113;DHT22;38109;49.488;31.988;2023-05-16T12:50:38;20.80;51.40
52113;DHT22;38109;49.488;31.988;2023-05-16T12:53:04;20.80;51.90
52113;DHT22;38109;49.488;31.988;2023-05-16T12:55:31;20.80;51.10
52113;DHT22;38109;49.488;31.988;2023-05-16T12:57:57;20.80;51.00
52113;DHT22;38109;49.488;31.988;2023-05-16T13:00:25;20.80;50.90
52113;DHT22;38109;49.488;31.988;2023-05-16T13:02:51;20.80;50.70
52113;DHT22;38109;49.488;31.988;2023-05-16T13:05:19;20.80;50.60
52113;DHT22;38109;49.488;31.988;2023-05-16T13:07:48;20.80;50.50
52113;DHT22;38109;49.488;31.988;2023-05-16T13:10:16;20.90;50.60
52113;DHT22;38109;49.488;31.988;2023-05-16T13:12:42;20.90;50.50
52113;DHT22;38109;49.488;31.988;2023-05-16T13:15:09;20.90;50.40
52113;DHT22;38109;49.488;31.988;2023-05-16T13:17:37;20.90;50.30
52113;DHT22;38109;49.488;31.988;2023-05-16T13:20:04;21.00;50.40
52113;DHT22;38109;49.488;31.988;2023-05-16T13:22:33;21.00;50.30
52113;DHT22;38109;49.488;31.988;2023-05-16T13:24:58;21.00;50.80
52113;DHT22;38109;49.488;31.988;2023-05-16T13:27:25;21.00;50.20
52113;DHT22;38109;49.488;31.988;2023-05-16T13:29:50;21.00;50.10
52113;DHT22;38109;49.488;31.988;2023-05-16T13:32:16;21.00;50.10
52113;DHT22;38109;49.488;31.988;2023-05-16T13:34:43;21.00;50.10
52113;DHT22;38109;49.488;31.988;2023-05-16T13:37:08;21.00;50.00
52113;DHT22;38109;49.488;31.988;2023-05-16T13:39:34;21.00;50.00
52113;DHT22;38109;49.488;31.988;2023-05-16T13:42:00;21.00;49.90
52113;DHT22;38109;49.488;31.988;2023-05-16T13:44:28;21.00;49.80
52113;DHT22;38109;49.488;31.988;2023-05-16T13:46:54;21.00;49.80
52113;DHT22;38109;49.488;31.988;2023-05-16T13:49:21;21.00;49.80
52113;DHT22;38109;49.488;31.988;2023-05-16T13:51:46;21.00;49.70
52113;DHT22;38109;49.488;31.988;2023-05-16T13:54:12;21.00;49.70
52113;DHT22;38109;49.488;31.988;2023-05-16T13:56:38;21.10;49.80
52113;DHT22;38109;49.488;31.988;2023-05-16T13:59:03;21.10;49.80
52113;DHT22;38109;49.488;31.988;2023-05-16T14:01:29;21.10;49.70
52113;DHT22;38109;49.488;31.988;2023-05-16T14:03:55;21.10;49.70
52113;DHT22;38109;49.488;31.988;2023-05-16T14:06:20;21.20;49.70
52113;DHT22;38109;49.488;31.988;2023-05-16T14:08:46;21.20;49.70
52113;DHT22;38109;49.488;31.988;2023-05-16T14:11:12;21.30;49.70
52113;DHT22;38109;49.488;31.988;2023-05-16T14:13:37;21.30;49.70
52113;DHT22;38109;49.488;31.988;2023-05-16T14:16:05;21.30;49.70
52113;DHT22;38109;49.488;31.988;2023-05-16T14:18:31;21.40;49.70
52113;DHT22;38109;49.488;31.988;2023-05-16T14:20:57;21.40;49.60
52113;DHT22;38109;49.488;31.988;2023-05-16T14:23:23;21.40;49.60
52113;DHT22;38109;49.488;31.988;2023-05-16T14:25:48;21.40;49.60
52113;DHT22;38109;49.488;31.988;2023-05-16T14:28:14;21.40;49.50
52113;DHT22;38109;49.488;31.988;2023-05-16T14:30:40;21.40;49.50
52113;DHT22;38109;49.488;31.988;2023-05-16T14:33:06;21.40;49.30
52113;DHT22;38109;49.488;31.988;2023-05-16T14:35:32;21.40;49.20
52113;DHT22;38109;49.488;31.988;2023-05-16T14:37:58;21.40;49.20
52113;DHT22;38109;49.488;31.988;2023-05-16T14:40:24;21.40;49.20
52113;DHT22;38109;49.488;31.988;2023-05-16T14:42:49;21.40;49.10
52113;DHT22;38109;49.488;31.988;2023-05-16T14:45:15;21.40;49.10
52113;DHT22;38109;49.488;31.988;2023-05-16T14:47:41;21.30;49.10
52113;DHT22;38109;49.488;31.988;2023-05-16T14:50:08;21.40;49.00
52113;DHT22;38109;49.488;31.988;2023-05-16T14:52:34;21.40;48.90
52113;DHT22;38109;49.488;31.988;2023-05-16T14:54:59;21.30;48.80
52113;DHT22;38109;49.488;31.988;2023-05-16T14:57:25;21.40;48.90
52113;DHT22;38109;49.488;31.988;2023-05-16T14:59:51;21.30;48.70
52113;DHT22;38109;49.488;31.988;2023-05-16T15:02:17;21.30;48.70
52113;DHT22;38109;49.488;31.988;2023-05-16T15:04:43;21.30;48.60
52113;DHT22;38109;49.488;31.988;2023-05-16T15:07:08;21.30;48.60
52113;DHT22;38109;49.488;31.988;2023-05-16T15:09:34;21.30;48.60
52113;DHT22;38109;49.488;31.988;2023-05-16T15:12:00;21.30;48.60
52113;DHT22;38109;49.488;31.988;2023-05-16T15:14:26;21.30;48.70
52113;DHT22;38109;49.488;31.988;2023-05-16T15:16:52;21.30;48.60
52113;DHT22;38109;49.488;31.988;2023-05-16T15:19:17;21.30;48.60
52113;DHT22;38109;49.488;31.988;2023-05-16T15:21:43;21.30;48.60
52113;DHT22;38109;49.488;31.988;2023-05-16T15:24:09;21.30;48.60
52113;DHT22;38109;49.488;31.988;2023-05-16T15:26:34;21.30;48.70
52113;DHT22;38109;49.488;31.988;2023-05-16T15:29:00;21.30;48.70
52113;DHT22;38109;49.488;31.988;2023-05-16T15:31:27;21.30;48.70
52113;DHT22;38109;49.488;31.988;2023-05-16T15:33:53;21.30;48.60
52113;DHT22;38109;49.488;31.988;2023-05-16T15:36:19;21.30;48.60
52113;DHT22;38109;49.488;31.988;2023-05-16T15:38:45;21.30;48.50
52113;DHT22;38109;49.488;31.988;2023-05-16T15:41:11;21.40;48.70